createdAt,value
2023-03-19T00:00:32.166Z,1.70
2023-03-19T00:02:58.808Z,1.60
2023-03-19T00:05:25.475Z,1.60
2023-03-19T00:07:51.986Z,1.50
2023-03-19T00:10:18.532Z,1.50
2023-03-19T00:12:45.025Z,1.50
2023-03-19T00:15:13.440Z,1.50
2023-03-19T00:17:41.274Z,1.60
2023-03-19T00:20:10.301Z,1.60
2023-03-19T00:22:36.771Z,1.60
2023-03-19T00:25:03.702Z,1.60
2023-03-19T00:27:30.414Z,1.60
2023-03-19T00:29:56.890Z,1.50
2023-03-19T00:32:23.356Z,1.40
2023-03-19T00:34:50.256Z,1.20
2023-03-19T00:37:16.764Z,1.10
2023-03-19T00:39:43.321Z,1.20
2023-03-19T00:42:09.929Z,1.30
2023-03-19T00:44:36.406Z,1.40
2023-03-19T00:47:02.896Z,1.40
2023-03-19T00:49:29.475Z,1.60
2023-03-19T00:51:55.929Z,1.60
2023-03-19T00:54:22.419Z,1.50
2023-03-19T00:56:48.901Z,1.40
2023-03-19T00:59:15.390Z,1.30
2023-03-19T01:01:41.887Z,1.30
2023-03-19T01:04:08.686Z,1.30
2023-03-19T01:06:35.184Z,1.30
2023-03-19T01:09:01.678Z,1.10
2023-03-19T01:11:28.174Z,1.20
2023-03-19T01:13:54.686Z,1.20
2023-03-19T01:16:21.183Z,1.40
2023-03-19T01:18:47.674Z,1.40
2023-03-19T01:21:14.175Z,1.30
2023-03-19T01:23:40.675Z,1.30
2023-03-19T01:26:07.568Z,1.40
2023-03-19T01:28:34.058Z,1.30
2023-03-19T01:31:06.138Z,1.30
2023-03-19T01:33:32.859Z,1.20
2023-03-19T01:36:02.803Z,1.00
2023-03-19T01:38:29.353Z,1.00
2023-03-19T01:40:56.411Z,1.00
2023-03-19T01:43:26.453Z,1.00
2023-03-19T01:46:00.892Z,1.10
2023-03-19T01:51:21.389Z,1.10
2023-03-19T01:53:55.395Z,1.40
2023-03-19T01:56:29.210Z,1.40
2023-03-19T01:59:03.697Z,1.50
2023-03-19T02:01:36.944Z,1.50
2023-03-19T02:04:05.357Z,1.40
2023-03-19T02:06:34.142Z,1.00
2023-03-19T02:09:01.178Z,0.80
2023-03-19T02:11:28.064Z,0.80
2023-03-19T02:13:54.555Z,1.00
2023-03-19T02:16:21.257Z,1.10
2023-03-19T02:18:48.272Z,1.20
2023-03-19T02:21:19.279Z,1.40
2023-03-19T02:24:07.056Z,1.50
2023-03-19T02:26:35.133Z,1.50
2023-03-19T02:29:03.314Z,1.50
2023-03-19T02:31:30.246Z,1.40
2023-03-19T02:34:57.125Z,1.40
2023-03-19T02:37:30.564Z,1.40
2023-03-19T02:40:23.864Z,1.40
2023-03-19T02:42:50.431Z,1.20
2023-03-19T02:45:17.712Z,1.10
2023-03-19T02:47:44.178Z,1.00
2023-03-19T02:50:11.319Z,1.00
2023-03-19T02:52:38.050Z,0.90
2023-03-19T02:55:05.740Z,0.90
2023-03-19T02:57:32.310Z,0.90
2023-03-19T02:59:58.792Z,1.00
2023-03-19T03:02:25.739Z,1.00
2023-03-19T03:04:52.282Z,0.80
2023-03-19T03:07:18.779Z,0.70
2023-03-19T03:09:45.294Z,0.80
2023-03-19T03:12:11.947Z,0.80
2023-03-19T03:14:38.412Z,0.80
2023-03-19T03:17:07.009Z,0.90
2023-03-19T03:19:33.656Z,0.90
2023-03-19T03:22:00.658Z,0.80
2023-03-19T03:24:27.874Z,0.80
2023-03-19T03:26:54.330Z,0.70
2023-03-19T03:29:20.830Z,0.70
2023-03-19T03:31:50.449Z,0.80
2023-03-19T03:34:17.224Z,0.70
2023-03-19T03:36:45.518Z,0.60
2023-03-19T03:39:13.091Z,0.50
2023-03-19T03:41:40.176Z,0.50
2023-03-19T03:44:06.654Z,0.50
2023-03-19T03:46:33.144Z,0.60
2023-03-19T03:48:59.819Z,0.70
2023-03-19T03:51:27.925Z,0.60
2023-03-19T03:53:54.477Z,0.60
2023-03-19T03:56:21.088Z,0.60
2023-03-19T03:58:47.557Z,0.50
2023-03-19T04:01:16.365Z,0.60
2023-03-19T04:03:43.766Z,0.40
2023-03-19T04:06:18.111Z,0.50
2023-03-19T04:08:45.259Z,0.50
2023-03-19T04:11:11.826Z,0.40
2023-03-19T04:13:38.945Z,0.50
2023-03-19T04:16:08.165Z,0.40
2023-03-19T04:18:35.976Z,0.40
2023-03-19T04:21:04.581Z,0.50
2023-03-19T04:23:31.430Z,0.50
2023-03-19T04:26:03.862Z,0.50
2023-03-19T04:28:30.546Z,0.50
2023-03-19T04:31:06.888Z,0.40
2023-03-19T04:33:34.864Z,0.50
2023-03-19T04:36:02.566Z,0.40
2023-03-19T04:38:29.349Z,0.50
2023-03-19T04:40:56.316Z,0.50
2023-03-19T04:43:24.337Z,0.50
2023-03-19T04:45:51.448Z,0.60
2023-03-19T04:48:18.008Z,0.60
2023-03-19T04:50:46.550Z,0.50
2023-03-19T04:53:13.055Z,0.50
2023-03-19T04:55:39.552Z,0.70
2023-03-19T04:58:06.215Z,0.80
2023-03-19T05:00:33.020Z,0.80
2023-03-19T05:03:00.078Z,0.80
2023-03-19T05:05:26.574Z,0.80
2023-03-19T05:07:53.030Z,1.00
2023-03-19T05:10:20.287Z,0.90
2023-03-19T05:12:46.786Z,0.60
2023-03-19T05:15:14.420Z,0.60
2023-03-19T05:17:41.025Z,0.60
2023-03-19T05:20:11.318Z,0.40
2023-03-19T05:22:38.096Z,0.40
2023-03-19T05:25:06.129Z,0.40
2023-03-19T05:27:32.664Z,0.60
2023-03-19T05:30:00.605Z,0.60
2023-03-19T05:32:27.974Z,0.70
2023-03-19T05:34:54.468Z,0.70
2023-03-19T05:37:21.187Z,0.80
2023-03-19T05:39:47.639Z,0.90
2023-03-19T05:42:14.841Z,0.90
2023-03-19T05:44:41.529Z,0.90
2023-03-19T05:47:10.743Z,1.10
2023-03-19T05:49:37.253Z,1.20
2023-03-19T05:52:04.250Z,1.30
2023-03-19T05:54:30.742Z,1.50
2023-03-19T05:56:57.259Z,1.70
2023-03-19T05:59:23.798Z,1.80
2023-03-19T06:01:50.343Z,1.80
2023-03-19T06:04:16.983Z,1.80
2023-03-19T06:06:43.524Z,1.80
2023-03-19T06:09:10.050Z,1.80
2023-03-19T06:11:38.746Z,1.90
2023-03-19T06:14:06.215Z,2.00
2023-03-19T06:16:33.084Z,2.00
2023-03-19T06:19:00.032Z,2.10
2023-03-19T06:21:28.841Z,2.30
2023-03-19T06:23:56.637Z,2.50
2023-03-19T06:26:24.744Z,2.80
2023-03-19T06:28:51.798Z,3.00
2023-03-19T06:31:18.319Z,3.10
2023-03-19T06:33:45.160Z,3.30
2023-03-19T06:36:11.670Z,3.40
2023-03-19T06:38:38.194Z,3.60
2023-03-19T06:41:04.832Z,3.80
2023-03-19T06:43:31.947Z,4.10
2023-03-19T06:45:58.487Z,4.30
2023-03-19T06:48:24.945Z,4.60
2023-03-19T06:50:51.431Z,4.80
2023-03-19T06:53:17.889Z,5.10
2023-03-19T06:55:46.240Z,5.30
2023-03-19T06:58:12.864Z,5.60
2023-03-19T07:00:39.488Z,6.00
2023-03-19T07:03:06.738Z,6.20
2023-03-19T07:05:33.434Z,6.40
2023-03-19T07:07:59.912Z,6.60
2023-03-19T07:10:26.401Z,6.80
2023-03-19T07:12:52.892Z,7.10
2023-03-19T07:15:20.712Z,7.40
2023-03-19T07:17:48.770Z,7.70
2023-03-19T07:20:16.018Z,7.90
2023-03-19T07:22:42.638Z,8.00
2023-03-19T07:25:09.962Z,8.00
2023-03-19T07:27:36.465Z,8.20
2023-03-19T07:30:03.396Z,8.20
2023-03-19T07:32:29.868Z,8.40
2023-03-19T07:34:56.321Z,8.40
2023-03-19T07:37:22.832Z,8.50
2023-03-19T07:39:49.322Z,8.60
2023-03-19T07:42:15.928Z,8.80
2023-03-19T07:44:42.425Z,9.00
2023-03-19T07:47:22.442Z,9.10
2023-03-19T07:49:53.511Z,9.10
2023-03-19T07:52:19.983Z,9.10
2023-03-19T07:54:46.490Z,9.10
2023-03-19T07:57:13.014Z,9.10
2023-03-19T07:59:39.504Z,9.10
2023-03-19T08:02:06.476Z,9.20
2023-03-19T08:04:33.145Z,9.10
2023-03-19T08:07:00.338Z,9.20
2023-03-19T08:09:27.243Z,9.20
2023-03-19T08:11:53.704Z,9.20
2023-03-19T08:14:21.797Z,9.40
2023-03-19T08:16:49.025Z,9.60
2023-03-19T08:19:16.117Z,9.90
2023-03-19T08:21:42.806Z,10.00
2023-03-19T08:24:09.318Z,10.10
2023-03-19T08:26:36.852Z,10.20
2023-03-19T08:29:03.697Z,10.10
2023-03-19T08:31:30.197Z,10.20
2023-03-19T08:33:59.317Z,10.40
2023-03-19T08:36:26.644Z,10.60
2023-03-19T08:38:54.145Z,10.90
2023-03-19T08:41:24.003Z,11.10
2023-03-19T08:43:50.976Z,11.50
2023-03-19T08:46:18.176Z,11.70
2023-03-19T08:48:44.649Z,11.80
2023-03-19T08:51:11.234Z,11.90
2023-03-19T08:53:38.204Z,12.00
2023-03-19T08:56:07.252Z,12.10
2023-03-19T08:58:34.321Z,12.40
2023-03-19T09:01:11.883Z,12.50
2023-03-19T09:03:40.475Z,12.60
2023-03-19T09:06:10.174Z,12.70
2023-03-19T09:08:37.657Z,12.70
2023-03-19T09:11:05.565Z,12.70
2023-03-19T09:13:32.553Z,12.80
2023-03-19T09:15:59.149Z,12.90
2023-03-19T09:18:25.829Z,12.90
2023-03-19T09:20:55.596Z,13.00
2023-03-19T09:23:22.146Z,13.10
2023-03-19T09:25:48.838Z,13.00
2023-03-19T09:28:15.811Z,13.10
2023-03-19T09:30:44.630Z,13.10
2023-03-19T09:33:11.244Z,13.10
2023-03-19T09:35:38.973Z,13.20
2023-03-19T09:38:05.813Z,13.10
2023-03-19T09:40:43.764Z,13.00
2023-03-19T09:45:32.239Z,13.00
2023-03-19T09:48:12.025Z,13.30
2023-03-19T09:50:38.567Z,13.30
2023-03-19T09:53:29.009Z,13.50
2023-03-19T09:55:59.627Z,13.60
2023-03-19T09:58:34.436Z,13.70
2023-03-19T10:01:02.479Z,13.70
2023-03-19T10:08:11.669Z,13.70
2023-03-19T10:16:36.638Z,13.90
2023-03-19T10:19:06.118Z,14.40
2023-03-19T10:22:00.463Z,14.70
2023-03-19T10:24:38.822Z,15.00
2023-03-19T10:27:21.344Z,14.80
2023-03-19T10:29:48.008Z,14.80
2023-03-19T10:32:42.273Z,14.90
2023-03-19T10:35:28.448Z,15.20
2023-03-19T10:37:55.022Z,15.20
2023-03-19T10:40:33.773Z,15.20
2023-03-19T10:43:22.379Z,15.40
2023-03-19T10:45:48.972Z,15.60
2023-03-19T10:48:18.124Z,15.70
2023-03-19T10:50:59.849Z,15.50
2023-03-19T10:53:39.547Z,15.50
2023-03-19T10:58:14.618Z,15.50
2023-03-19T11:00:45.007Z,15.50
2023-03-19T11:03:37.294Z,15.40
2023-03-19T11:06:35.307Z,15.50
2023-03-19T11:09:19.067Z,15.50
2023-03-19T11:11:51.053Z,15.60
2023-03-19T11:14:24.232Z,15.60
2023-03-19T11:17:04.722Z,15.60
2023-03-19T11:19:40.491Z,15.80
2023-03-19T11:22:27.564Z,16.00
2023-03-19T11:24:59.213Z,16.30
2023-03-19T11:27:34.348Z,16.50
2023-03-19T11:30:04.346Z,16.60
2023-03-19T11:33:12.148Z,16.70
2023-03-19T11:35:48.250Z,16.60
2023-03-19T11:41:03.314Z,16.70
2023-03-19T11:44:31.470Z,16.70
2023-03-19T11:47:26.837Z,16.60
2023-03-19T11:52:01.040Z,16.80
2023-03-19T11:55:19.186Z,16.80
2023-03-19T12:01:00.825Z,16.90
2023-03-19T12:05:50.863Z,16.80
2023-03-19T12:09:16.076Z,16.70
2023-03-19T12:15:50.538Z,16.60
2023-03-19T12:21:52.020Z,16.70
2023-03-19T12:27:34.801Z,16.80
2023-03-19T12:33:31.760Z,17.20
2023-03-19T12:36:01.206Z,17.20
2023-03-19T12:38:50.198Z,17.20
2023-03-19T12:41:27.459Z,17.10
2023-03-19T12:44:31.952Z,16.90
2023-03-19T12:47:24.406Z,16.60
2023-03-19T12:49:59.406Z,16.50
2023-03-19T12:52:37.200Z,16.30
2023-03-19T12:55:26.372Z,16.10
2023-03-19T12:59:01.176Z,16.10
2023-03-19T13:01:39.590Z,16.20
2023-03-19T13:04:24.338Z,16.30
2023-03-19T13:07:02.730Z,16.40
2023-03-19T13:09:57.125Z,16.30
2023-03-19T13:12:31.222Z,16.50
2023-03-19T13:15:13.661Z,16.30
2023-03-19T13:18:38.212Z,16.40
2023-03-19T13:21:38.217Z,16.40
2023-03-19T13:24:37.922Z,16.10
2023-03-19T13:27:11.324Z,16.20
2023-03-19T13:29:55.330Z,16.20
2023-03-19T13:33:22.145Z,16.20
2023-03-19T13:35:53.947Z,16.30
2023-03-19T13:38:40.972Z,16.30
2023-03-19T13:41:52.749Z,16.30
2023-03-19T13:45:29.057Z,16.30
2023-03-19T13:48:24.576Z,16.20
2023-03-19T13:51:04.029Z,16.40
2023-03-19T13:56:41.330Z,16.50
2023-03-19T13:59:27.502Z,16.60
2023-03-19T14:01:55.132Z,16.50
2023-03-19T14:04:37.472Z,16.50
2023-03-19T14:07:25.822Z,16.40
2023-03-19T14:10:29.974Z,16.20
2023-03-19T14:13:41.746Z,16.30
2023-03-19T14:16:20.318Z,16.30
2023-03-19T14:18:48.629Z,16.30
2023-03-19T14:21:46.608Z,16.30
2023-03-19T14:24:57.076Z,16.20
2023-03-19T14:27:32.135Z,16.20
2023-03-19T14:30:15.357Z,16.10
2023-03-19T14:32:47.210Z,16.10
2023-03-19T14:35:21.782Z,16.00
2023-03-19T14:37:51.496Z,15.90
2023-03-19T14:40:26.410Z,15.90
2023-03-19T14:46:03.383Z,15.80
2023-03-19T14:49:56.239Z,15.60
2023-03-19T14:52:42.806Z,15.60
2023-03-19T14:55:18.394Z,15.60
2023-03-19T14:57:45.127Z,15.50
2023-03-19T15:00:18.682Z,15.50
2023-03-19T15:02:51.345Z,15.40
2023-03-19T15:05:36.785Z,15.40
2023-03-19T15:08:10.813Z,15.40
2023-03-19T15:12:42.750Z,15.30
2023-03-19T15:16:11.364Z,15.30
2023-03-19T15:18:38.251Z,15.40
2023-03-19T15:21:06.046Z,15.20
2023-03-19T15:23:33.314Z,15.10
2023-03-19T15:26:07.823Z,15.00
2023-03-19T15:28:50.417Z,15.00
2023-03-19T15:31:31.677Z,14.90
2023-03-19T15:34:22.012Z,14.80
2023-03-19T15:37:17.433Z,14.70
2023-03-19T15:39:54.170Z,14.70
2023-03-19T15:42:24.628Z,14.70
2023-03-19T15:45:18.994Z,14.70
2023-03-19T15:49:33.635Z,14.60
2023-03-19T15:52:06.084Z,14.60
2023-03-19T15:54:33.466Z,14.50
2023-03-19T15:56:59.990Z,14.40
2023-03-19T15:59:30.743Z,14.40
2023-03-19T16:02:01.663Z,14.20
2023-03-19T16:04:29.844Z,14.20
2023-03-19T16:06:58.559Z,14.00
2023-03-19T16:09:34.164Z,13.90
2023-03-19T16:12:01.407Z,13.90
2023-03-19T16:14:42.470Z,13.80
2023-03-19T16:17:16.287Z,13.70
2023-03-19T16:19:57.711Z,13.70
2023-03-19T16:22:29.735Z,13.60
2023-03-19T16:24:58.060Z,13.50
2023-03-19T16:27:39.075Z,13.40
2023-03-19T16:30:28.623Z,13.30
2023-03-19T16:33:06.512Z,13.20
2023-03-19T16:35:35.917Z,13.00
2023-03-19T16:38:44.246Z,12.80
2023-03-19T16:41:33.138Z,12.70
2023-03-19T16:44:18.608Z,12.60
2023-03-19T16:46:45.208Z,12.50
2023-03-19T16:49:11.695Z,12.50
2023-03-19T16:51:39.073Z,12.40
2023-03-19T16:54:05.713Z,12.30
2023-03-19T16:56:32.672Z,12.20
2023-03-19T16:59:02.179Z,12.10
2023-03-19T17:01:28.976Z,12.00
2023-03-19T17:03:55.462Z,11.90
2023-03-19T17:06:22.102Z,11.80
2023-03-19T17:08:48.845Z,11.80
2023-03-19T17:11:34.301Z,11.70
2023-03-19T17:14:02.598Z,11.70
2023-03-19T17:16:29.540Z,11.50
2023-03-19T17:18:56.658Z,11.50
2023-03-19T17:21:31.033Z,11.30
2023-03-19T17:23:58.739Z,11.20
2023-03-19T17:26:28.026Z,11.20
2023-03-19T17:28:55.803Z,11.20
2023-03-19T17:31:29.704Z,11.10
2023-03-19T17:34:15.609Z,11.00
2023-03-19T17:36:50.835Z,10.90
2023-03-19T17:39:18.559Z,10.90
2023-03-19T17:41:45.782Z,10.90
2023-03-19T17:44:13.742Z,10.90
2023-03-19T17:46:50.654Z,11.00
2023-03-19T17:49:28.232Z,11.50
2023-03-19T17:51:55.928Z,11.60
2023-03-19T17:54:24.997Z,11.20
2023-03-19T17:56:51.838Z,10.90
2023-03-19T17:59:18.459Z,10.70
2023-03-19T18:01:48.316Z,10.60
2023-03-19T18:04:20.706Z,10.50
2023-03-19T18:06:54.249Z,10.40
2023-03-19T18:09:26.236Z,10.40
2023-03-19T18:11:52.735Z,10.30
2023-03-19T18:14:19.584Z,10.30
2023-03-19T18:16:46.806Z,10.20
2023-03-19T18:19:27.164Z,10.20
2023-03-19T18:21:53.652Z,10.10
2023-03-19T18:24:20.377Z,10.10
2023-03-19T18:26:46.910Z,10.20
2023-03-19T18:29:13.392Z,10.50
2023-03-19T18:31:41.343Z,10.60
2023-03-19T18:34:12.470Z,10.70
2023-03-19T18:36:39.489Z,10.90
2023-03-19T18:39:12.737Z,10.80
2023-03-19T18:41:40.822Z,10.70
2023-03-19T18:44:08.561Z,10.70
2023-03-19T18:46:38.705Z,10.70
2023-03-19T18:49:24.517Z,10.80
2023-03-19T18:52:02.005Z,10.80
2023-03-19T18:54:30.459Z,10.80
2023-03-19T18:56:58.620Z,10.80
2023-03-19T18:59:31.798Z,10.80
2023-03-19T19:02:03.294Z,10.70
2023-03-19T19:04:30.482Z,10.70
2023-03-19T19:06:57.264Z,10.50
2023-03-19T19:09:23.760Z,10.40
2023-03-19T19:11:50.402Z,10.40
2023-03-19T19:14:23.473Z,10.40
2023-03-19T19:16:52.087Z,10.30
2023-03-19T19:19:24.473Z,10.30
2023-03-19T19:21:52.268Z,10.30
2023-03-19T19:24:19.309Z,10.30
2023-03-19T19:26:52.979Z,10.30
2023-03-19T19:29:27.462Z,10.30
2023-03-19T19:31:54.768Z,10.20
2023-03-19T19:34:22.333Z,10.30
2023-03-19T19:36:50.075Z,10.20
2023-03-19T19:39:16.716Z,10.10
2023-03-19T19:41:43.595Z,10.00
2023-03-19T19:44:21.870Z,10.00
2023-03-19T19:46:52.355Z,9.90
2023-03-19T19:49:20.960Z,9.90
2023-03-19T19:51:47.441Z,10.00
2023-03-19T19:54:13.913Z,10.00
2023-03-19T19:56:40.877Z,10.00
2023-03-19T19:59:13.578Z,9.90
2023-03-19T20:01:40.187Z,9.80
2023-03-19T20:04:09.229Z,9.50
2023-03-19T20:06:35.837Z,9.30
2023-03-19T20:09:02.306Z,9.20
2023-03-19T20:11:30.627Z,9.30
2023-03-19T20:13:57.085Z,9.30
2023-03-19T20:16:26.028Z,9.30
2023-03-19T20:18:54.001Z,9.30
2023-03-19T20:21:21.916Z,9.30
2023-03-19T20:23:52.105Z,9.20
2023-03-19T20:26:23.160Z,9.00
2023-03-19T20:28:50.808Z,8.60
2023-03-19T20:31:28.962Z,8.10
2023-03-19T20:33:56.567Z,7.80
2023-03-19T20:36:23.231Z,7.80
2023-03-19T20:38:51.643Z,7.70
2023-03-19T20:41:22.824Z,7.60
2023-03-19T20:43:50.624Z,7.50
2023-03-19T20:46:20.054Z,7.50
2023-03-19T20:48:47.203Z,7.60
2023-03-19T20:51:21.912Z,7.40
2023-03-19T20:53:50.486Z,7.30
2023-03-19T20:56:21.233Z,7.20
2023-03-19T20:58:51.063Z,7.10
2023-03-19T21:01:17.764Z,6.80
2023-03-19T21:03:44.548Z,6.70
2023-03-19T21:06:21.284Z,6.70
2023-03-19T21:08:52.583Z,6.60
2023-03-19T21:11:22.751Z,6.60
2023-03-19T21:13:52.797Z,6.70
2023-03-19T21:16:25.577Z,6.70
2023-03-19T21:18:53.178Z,6.70
2023-03-19T21:21:33.663Z,6.50
2023-03-19T21:24:18.655Z,6.60
2023-03-19T21:26:45.810Z,6.50
2023-03-19T21:29:32.685Z,6.50
2023-03-19T21:31:59.210Z,6.50
2023-03-19T21:34:25.753Z,6.40
2023-03-19T21:36:52.228Z,6.40
2023-03-19T21:39:18.693Z,6.40
2023-03-19T21:41:46.409Z,6.30
2023-03-19T21:44:17.888Z,6.30
2023-03-19T21:46:47.406Z,6.30
2023-03-19T21:49:15.403Z,6.30
2023-03-19T21:51:45.975Z,6.20
2023-03-19T21:54:14.874Z,6.20
2023-03-19T21:56:45.179Z,6.20
2023-03-19T21:59:21.334Z,6.60
2023-03-19T22:01:47.957Z,6.80
2023-03-19T22:04:14.578Z,6.80
2023-03-19T22:06:42.235Z,6.90
2023-03-19T22:09:08.737Z,7.10
2023-03-19T22:11:37.803Z,7.00
2023-03-19T22:14:14.988Z,6.60
2023-03-19T22:16:41.681Z,6.30
2023-03-19T22:19:17.066Z,6.00
2023-03-19T22:21:43.608Z,5.80
2023-03-19T22:24:10.303Z,5.80
2023-03-19T22:26:42.884Z,5.90
2023-03-19T22:29:20.234Z,5.60
2023-03-19T22:31:54.497Z,5.60
2023-03-19T22:34:25.426Z,5.50
2023-03-19T22:36:51.917Z,5.40
2023-03-19T22:39:18.628Z,5.30
2023-03-19T22:41:48.155Z,5.30
2023-03-19T22:44:27.137Z,5.30
2023-03-19T22:46:55.751Z,5.40
2023-03-19T22:49:23.820Z,5.40
2023-03-19T22:51:50.565Z,5.40
2023-03-19T22:54:17.081Z,5.30
2023-03-19T22:56:43.592Z,5.10
2023-03-19T22:59:10.066Z,5.00
2023-03-19T23:01:43.626Z,5.00
2023-03-19T23:04:31.638Z,4.90
2023-03-19T23:07:00.120Z,4.90
2023-03-19T23:09:31.371Z,5.00
2023-03-19T23:11:59.273Z,5.10
2023-03-19T23:14:30.489Z,5.20
2023-03-19T23:17:09.300Z,5.20
2023-03-19T23:19:37.609Z,5.00
2023-03-19T23:22:12.842Z,5.00
2023-03-19T23:24:39.336Z,5.00
2023-03-19T23:27:05.816Z,5.40
2023-03-19T23:29:42.882Z,5.70
2023-03-19T23:32:12.756Z,5.80
2023-03-19T23:34:54.088Z,6.00
2023-03-19T23:37:24.472Z,6.10
2023-03-19T23:39:51.146Z,6.30
2023-03-19T23:42:28.061Z,6.30
2023-03-19T23:44:58.695Z,5.80
2023-03-19T23:47:26.536Z,5.30
2023-03-19T23:49:53.001Z,5.10
2023-03-19T23:52:19.808Z,5.00
2023-03-19T23:54:46.816Z,4.90
2023-03-19T23:57:16.199Z,4.90
2023-03-19T23:59:47.373Z,4.80
